sensor_id;sensor_type;location;lat;lon;timestamp;pressure;altitude;pressure_sealevel;temperature;humidity
17855;BME280;9053;53.358;6.382;2023-04-09T00:00:21;102687.44;;;10.40;100.00
17855;BME280;9053;53.358;6.382;2023-04-09T00:02:51;102691.91;;;10.42;100.00
17855;BME280;9053;53.358;6.382;2023-04-09T00:05:24;102699.16;;;10.46;100.00
17855;BME280;9053;53.358;6.382;2023-04-09T00:07:54;102686.81;;;10.45;100.00
17855;BME280;9053;53.358;6.382;2023-04-09T00:10:24;102689.56;;;10.46;100.00
17855;BME280;9053;53.358;6.382;2023-04-09T00:12:53;102694.84;;;10.46;100.00
17855;BME280;9053;53.358;6.382;2023-04-09T00:15:23;102690.47;;;10.47;100.00
17855;BME280;9053;53.358;6.382;2023-04-09T00:17:57;102690.47;;;10.47;100.00
17855;BME280;9053;53.358;6.382;2023-04-09T00:20:30;102695.72;;;10.47;100.00
17855;BME280;9053;53.358;6.382;2023-04-09T00:23:00;102693.09;;;10.47;100.00
17855;BME280;9053;53.358;6.382;2023-04-09T00:25:29;102695.72;;;10.47;100.00
17855;BME280;9053;53.358;6.382;2023-04-09T00:27:59;102694.53;;;10.42;100.00
17855;BME280;9053;53.358;6.382;2023-04-09T00:30:29;102694.53;;;10.42;100.00
17855;BME280;9053;53.358;6.382;2023-04-09T00:33:02;102693.53;;;10.39;100.00
17855;BME280;9053;53.358;6.382;2023-04-09T00:35:35;102695.31;;;10.40;100.00
17855;BME280;9053;53.358;6.382;2023-04-09T00:38:05;102689.97;;;10.39;100.00
17855;BME280;9053;53.358;6.382;2023-04-09T00:40:35;102686.44;;;10.38;100.00
17855;BME280;9053;53.358;6.382;2023-04-09T00:43:05;102688.06;;;10.36;100.00
17855;BME280;9053;53.358;6.382;2023-04-09T00:45:34;102686.16;;;10.34;100.00
17855;BME280;9053;53.358;6.382;2023-04-09T00:48:05;102685.25;;;10.33;100.00
17855;BME280;9053;53.358;6.382;2023-04-09T00:50:38;102682.41;;;10.30;100.00
17855;BME280;9053;53.358;6.382;2023-04-09T00:53:09;102684.81;;;10.27;100.00
17855;BME280;9053;53.358;6.382;2023-04-09T00:55:40;102684.59;;;10.24;100.00
17855;BME280;9053;53.358;6.382;2023-04-09T00:58:10;102680.97;;;10.22;100.00
17855;BME280;9053;53.358;6.382;2023-04-09T01:00:40;102685.22;;;10.20;100.00
17855;BME280;9053;53.358;6.382;2023-04-09T01:03:10;102681.38;;;10.15;100.00
17855;BME280;9053;53.358;6.382;2023-04-09T01:05:48;102672.28;;;10.10;100.00
17855;BME280;9053;53.358;6.382;2023-04-09T01:08:31;102666.63;;;10.04;100.00
17855;BME280;9053;53.358;6.382;2023-04-09T01:11:09;102668.97;;;9.99;100.00
17855;BME280;9053;53.358;6.382;2023-04-09T01:13:48;102670.25;;;9.92;100.00
17855;BME280;9053;53.358;6.382;2023-04-09T01:16:21;102665.63;;;9.88;100.00
17855;BME280;9053;53.358;6.382;2023-04-09T01:18:57;102669.69;;;9.83;100.00
17855;BME280;9053;53.358;6.382;2023-04-09T01:21:32;102668.66;;;9.81;100.00
17855;BME280;9053;53.358;6.382;2023-04-09T01:24:14;102676.34;;;9.78;100.00
17855;BME280;9053;53.358;6.382;2023-04-09T01:26:54;102668.47;;;9.78;100.00
17855;BME280;9053;53.358;6.382;2023-04-09T01:29:30;102676.44;;;9.80;100.00
17855;BME280;9053;53.358;6.382;2023-04-09T01:32:02;102670.47;;;9.82;100.00
17855;BME280;9053;53.358;6.382;2023-04-09T01:34:38;102671.59;;;9.86;100.00
17855;BME280;9053;53.358;6.382;2023-04-09T01:37:10;102669.06;;;9.87;100.00
17855;BME280;9053;53.358;6.382;2023-04-09T01:39:41;102669.28;;;9.90;100.00
17855;BME280;9053;53.358;6.382;2023-04-09T01:42:12;102673.59;;;9.90;100.00
17855;BME280;9053;53.358;6.382;2023-04-09T01:44:47;102675.44;;;9.91;100.00
17855;BME280;9053;53.358;6.382;2023-04-09T01:47:17;102667.44;;;9.89;100.00
17855;BME280;9053;53.358;6.382;2023-04-09T01:49:48;102667.44;;;9.89;100.00
17855;BME280;9053;53.358;6.382;2023-04-09T01:52:17;102669.28;;;9.90;100.00
17855;BME280;9053;53.358;6.382;2023-04-09T01:54:48;102660.56;;;9.91;100.00
17855;BME280;9053;53.358;6.382;2023-04-09T01:57:18;102660.78;;;9.94;100.00
17855;BME280;9053;53.358;6.382;2023-04-09T01:59:50;102666.22;;;9.97;100.00
17855;BME280;9053;53.358;6.382;2023-04-09T02:02:30;102664.59;;;10.00;100.00
17855;BME280;9053;53.358;6.382;2023-04-09T02:05:04;102662.09;;;10.01;100.00
17855;BME280;9053;53.358;6.382;2023-04-09T02:07:37;102657.03;;;10.04;100.00
17855;BME280;9053;53.358;6.382;2023-04-09T02:10:09;102656.31;;;10.07;100.00
17855;BME280;9053;53.358;6.382;2023-04-09T02:12:48;102652.06;;;10.09;100.00
17855;BME280;9053;53.358;6.382;2023-04-09T02:15:23;102654.78;;;10.10;100.00
17855;BME280;9053;53.358;6.382;2023-04-09T02:17:53;102651.44;;;10.13;100.00
17855;BME280;9053;53.358;6.382;2023-04-09T02:20:23;102645.38;;;10.14;100.00
17855;BME280;9053;53.358;6.382;2023-04-09T02:22:53;102652.56;;;10.16;100.00
17855;BME280;9053;53.358;6.382;2023-04-09T02:25:23;102646.47;;;10.17;100.00
17855;BME280;9053;53.358;6.382;2023-04-09T02:27:54;102644.69;;;10.16;100.00
17855;BME280;9053;53.358;6.382;2023-04-09T02:30:27;102636.91;;;10.18;100.00
17855;BME280;9053;53.358;6.382;2023-04-09T02:32:57;102636.91;;;10.18;100.00
17855;BME280;9053;53.358;6.382;2023-04-09T02:35:27;102631.72;;;10.19;100.00
17855;BME280;9053;53.358;6.382;2023-04-09T02:37:57;102631.72;;;10.19;100.00
17855;BME280;9053;53.358;6.382;2023-04-09T02:40:27;102630.00;;;10.20;100.00
17855;BME280;9053;53.358;6.382;2023-04-09T02:42:57;102627.34;;;10.20;100.00
17855;BME280;9053;53.358;6.382;2023-04-09T02:45:29;102627.28;;;10.18;100.00
17855;BME280;9053;53.358;6.382;2023-04-09T02:47:59;102622.81;;;10.17;100.00
17855;BME280;9053;53.358;6.382;2023-04-09T02:50:29;102621.00;;;10.16;100.00
17855;BME280;9053;53.358;6.382;2023-04-09T02:52:59;102620.09;;;10.16;100.00
17855;BME280;9053;53.358;6.382;2023-04-09T02:55:29;102615.63;;;10.15;100.00
17855;BME280;9053;53.358;6.382;2023-04-09T02:57:59;102616.34;;;10.12;100.00
17855;BME280;9053;53.358;6.382;2023-04-09T03:00:32;102617.97;;;10.10;100.00
17855;BME280;9053;53.358;6.382;2023-04-09T03:03:02;102616.06;;;10.08;100.00
17855;BME280;9053;53.358;6.382;2023-04-09T03:05:35;102627.50;;;10.08;100.00
17855;BME280;9053;53.358;6.382;2023-04-09T03:08:08;102619.50;;;10.07;100.00
17855;BME280;9053;53.358;6.382;2023-04-09T03:10:38;102618.59;;;10.06;100.00
17855;BME280;9053;53.358;6.382;2023-04-09T03:13:08;102622.03;;;10.05;100.00
17855;BME280;9053;53.358;6.382;2023-04-09T03:15:40;102613.25;;;10.05;100.00
17855;BME280;9053;53.358;6.382;2023-04-09T03:18:13;102624.56;;;10.04;100.00
17855;BME280;9053;53.358;6.382;2023-04-09T03:20:43;102623.56;;;10.02;100.00
17855;BME280;9053;53.358;6.382;2023-04-09T03:23:13;102619.13;;;10.01;100.00
17855;BME280;9053;53.358;6.382;2023-04-09T03:25:43;102624.16;;;9.97;100.00
17855;BME280;9053;53.358;6.382;2023-04-09T03:28:13;102621.44;;;9.96;100.00
17855;BME280;9053;53.358;6.382;2023-04-09T03:30:45;102624.09;;;9.96;100.00
17855;BME280;9053;53.358;6.382;2023-04-09T03:33:15;102620.56;;;9.95;100.00
17855;BME280;9053;53.358;6.382;2023-04-09T03:35:45;102619.53;;;9.93;100.00
17855;BME280;9053;53.358;6.382;2023-04-09T03:38:15;102623.97;;;9.94;100.00
17855;BME280;9053;53.358;6.382;2023-04-09T03:40:45;102615.19;;;9.94;100.00
17855;BME280;9053;53.358;6.382;2023-04-09T03:43:15;102617.00;;;9.95;100.00
17855;BME280;9053;53.358;6.382;2023-04-09T03:45:47;102610.75;;;9.93;100.00
17855;BME280;9053;53.358;6.382;2023-04-09T03:48:17;102605.28;;;9.90;100.00
17855;BME280;9053;53.358;6.382;2023-04-09T03:50:47;102612.25;;;9.89;100.00
17855;BME280;9053;53.358;6.382;2023-04-09T03:53:17;102611.03;;;9.84;100.00
17855;BME280;9053;53.358;6.382;2023-04-09T03:55:47;102612.59;;;9.81;100.00
17855;BME280;9053;53.358;6.382;2023-04-09T03:58:17;102612.47;;;9.79;100.00
17855;BME280;9053;53.358;6.382;2023-04-09T04:00:49;102611.56;;;9.79;100.00
17855;BME280;9053;53.358;6.382;2023-04-09T04:03:19;102605.19;;;9.75;100.00
17855;BME280;9053;53.358;6.382;2023-04-09T04:05:49;102606.81;;;9.73;100.00
17855;BME280;9053;53.358;6.382;2023-04-09T04:08:20;102610.25;;;9.72;100.00
17855;BME280;9053;53.358;6.382;2023-04-09T04:10:50;102613.78;;;9.72;100.00
17855;BME280;9053;53.358;6.382;2023-04-09T04:13:19;102620.94;;;9.75;100.00
17855;BME280;9053;53.358;6.382;2023-04-09T04:15:52;102610.44;;;9.75;100.00
17855;BME280;9053;53.358;6.382;2023-04-09T04:18:22;102617.53;;;9.76;100.00
17855;BME280;9053;53.358;6.382;2023-04-09T04:20:53;102616.72;;;9.77;100.00
17855;BME280;9053;53.358;6.382;2023-04-09T04:23:23;102610.66;;;9.78;100.00
17855;BME280;9053;53.358;6.382;2023-04-09T04:25:53;102607.91;;;9.77;100.00
17855;BME280;9053;53.358;6.382;2023-04-09T04:28:23;102608.81;;;9.77;100.00
17855;BME280;9053;53.358;6.382;2023-04-09T04:30:57;102607.03;;;9.76;100.00
17855;BME280;9053;53.358;6.382;2023-04-09T04:33:26;102614.59;;;9.71;100.00
17855;BME280;9053;53.358;6.382;2023-04-09T04:36:03;102615.00;;;9.64;100.00
17855;BME280;9053;53.358;6.382;2023-04-09T04:38:33;102609.25;;;9.57;100.00
17855;BME280;9053;53.358;6.382;2023-04-09T04:41:04;102611.34;;;9.49;100.00
17855;BME280;9053;53.358;6.382;2023-04-09T04:43:34;102615.41;;;9.44;100.00
17855;BME280;9053;53.358;6.382;2023-04-09T04:46:06;102615.19;;;9.41;100.00
17855;BME280;9053;53.358;6.382;2023-04-09T04:48:36;102616.81;;;9.39;100.00
17855;BME280;9053;53.358;6.382;2023-04-09T04:51:06;102625.59;;;9.39;100.00
17855;BME280;9053;53.358;6.382;2023-04-09T04:53:36;102614.38;;;9.42;100.00
17855;BME280;9053;53.358;6.382;2023-04-09T04:56:11;102617.72;;;9.39;100.00
17855;BME280;9053;53.358;6.382;2023-04-09T04:58:41;102624.69;;;9.39;100.00
17855;BME280;9053;53.358;6.382;2023-04-09T05:01:15;102615.00;;;9.38;100.00
17855;BME280;9053;53.358;6.382;2023-04-09T05:03:47;102627.19;;;9.37;100.00
17855;BME280;9053;53.358;6.382;2023-04-09T05:06:17;102619.31;;;9.37;100.00
17855;BME280;9053;53.358;6.382;2023-04-09T05:08:47;102621.94;;;9.37;100.00
17855;BME280;9053;53.358;6.382;2023-04-09T05:11:17;102622.06;;;9.39;100.00
17855;BME280;9053;53.358;6.382;2023-04-09T05:13:47;102621.34;;;9.41;100.00
17855;BME280;9053;53.358;6.382;2023-04-09T05:16:20;102622.97;;;9.39;100.00
17855;BME280;9053;53.358;6.382;2023-04-09T05:18:52;102622.97;;;9.39;100.00
17855;BME280;9053;53.358;6.382;2023-04-09T05:21:22;102617.63;;;9.38;100.00
17855;BME280;9053;53.358;6.382;2023-04-09T05:23:53;102619.31;;;9.37;100.00
17855;BME280;9053;53.358;6.382;2023-04-09T05:26:23;102622.88;;;9.38;100.00
17855;BME280;9053;53.358;6.382;2023-04-09T05:28:53;102623.97;;;9.41;100.00
17855;BME280;9053;53.358;6.382;2023-04-09T05:31:25;102620.75;;;9.45;100.00
17855;BME280;9053;53.358;6.382;2023-04-09T05:33:56;102617.31;;;9.46;100.00
17855;BME280;9053;53.358;6.382;2023-04-09T05:36:26;102619.13;;;9.47;100.00
17855;BME280;9053;53.358;6.382;2023-04-09T05:38:56;102618.22;;;9.47;100.00
17855;BME280;9053;53.358;6.382;2023-04-09T05:41:26;102617.19;;;9.45;100.00
17855;BME280;9053;53.358;6.382;2023-04-09T05:43:56;102619.56;;;9.40;100.00
17855;BME280;9053;53.358;6.382;2023-04-09T05:46:29;102627.91;;;9.35;100.00
17855;BME280;9053;53.358;6.382;2023-04-09T05:48:59;102622.38;;;9.30;100.00
17855;BME280;9053;53.358;6.382;2023-04-09T05:51:29;102615.91;;;9.25;100.00
17855;BME280;9053;53.358;6.382;2023-04-09T05:54:00;102622.06;;;9.25;100.00
17855;BME280;9053;53.358;6.382;2023-04-09T05:56:29;102616.81;;;9.25;100.00
17855;BME280;9053;53.358;6.382;2023-04-09T05:58:59;102620.44;;;9.27;100.00
17855;BME280;9053;53.358;6.382;2023-04-09T06:01:32;102616.28;;;9.31;100.00
17855;BME280;9053;53.358;6.382;2023-04-09T06:04:03;102619.81;;;9.31;100.00
17855;BME280;9053;53.358;6.382;2023-04-09T06:06:35;102619.75;;;9.30;100.00
17855;BME280;9053;53.358;6.382;2023-04-09T06:09:05;102612.66;;;9.29;100.00
17855;BME280;9053;53.358;6.382;2023-04-09T06:11:35;102615.19;;;9.27;100.00
17855;BME280;9053;53.358;6.382;2023-04-09T06:14:05;102608.94;;;9.25;100.00
17855;BME280;9053;53.358;6.382;2023-04-09T06:16:40;102614.06;;;9.24;100.00
17855;BME280;9053;53.358;6.382;2023-04-09T06:19:10;102617.38;;;9.21;100.00
17855;BME280;9053;53.358;6.382;2023-04-09T06:21:40;102615.47;;;9.19;100.00
17855;BME280;9053;53.358;6.382;2023-04-09T06:24:10;102619.81;;;9.18;100.00
17855;BME280;9053;53.358;6.382;2023-04-09T06:26:40;102621.63;;;9.19;100.00
17855;BME280;9053;53.358;6.382;2023-04-09T06:29:10;102623.53;;;9.22;100.00
17855;BME280;9053;53.358;6.382;2023-04-09T06:31:44;102624.69;;;9.25;100.00
17855;BME280;9053;53.358;6.382;2023-04-09T06:39:50;102624.09;;;9.43;100.00
17855;BME280;9053;53.358;6.382;2023-04-09T06:42:38;102628.66;;;9.45;100.00
17855;BME280;9053;53.358;6.382;2023-04-09T06:45:08;102627.94;;;9.48;100.00
17855;BME280;9053;53.358;6.382;2023-04-09T06:47:41;102628.13;;;9.51;100.00
17855;BME280;9053;53.358;6.382;2023-04-09T06:50:11;102634.50;;;9.54;100.00
17855;BME280;9053;53.358;6.382;2023-04-09T06:52:41;102638.25;;;9.58;100.00
17855;BME280;9053;53.358;6.382;2023-04-09T06:55:11;102639.28;;;9.60;100.00
17855;BME280;9053;53.358;6.382;2023-04-09T06:57:41;102641.06;;;9.61;100.00
17855;BME280;9053;53.358;6.382;2023-04-09T07:00:12;102630.69;;;9.63;100.00
17855;BME280;9053;53.358;6.382;2023-04-09T07:02:45;102629.75;;;9.62;100.00
17855;BME280;9053;53.358;6.382;2023-04-09T07:05:15;102629.53;;;9.59;100.00
17855;BME280;9053;53.358;6.382;2023-04-09T07:07:45;102626.03;;;9.59;100.00
17855;BME280;9053;53.358;6.382;2023-04-09T07:10:15;102621.78;;;9.61;100.00
17855;BME280;9053;53.358;6.382;2023-04-09T07:12:45;102626.03;;;9.59;100.00
17855;BME280;9053;53.358;6.382;2023-04-09T07:15:16;102633.91;;;9.59;100.00
17855;BME280;9053;53.358;6.382;2023-04-09T07:17:49;102628.75;;;9.60;100.00
17855;BME280;9053;53.358;6.382;2023-04-09T07:20:19;102638.56;;;9.63;100.00
17855;BME280;9053;53.358;6.382;2023-04-09T07:22:49;102636.22;;;9.67;100.00
17855;BME280;9053;53.358;6.382;2023-04-09T07:25:19;102641.78;;;9.72;100.00
17855;BME280;9053;53.358;6.382;2023-04-09T07:27:49;102645.59;;;9.77;100.00
17855;BME280;9053;53.358;6.382;2023-04-09T07:30:19;102645.72;;;9.79;100.00
17855;BME280;9053;53.358;6.382;2023-04-09T07:32:52;102646.03;;;9.83;100.00
17855;BME280;9053;53.358;6.382;2023-04-09T07:35:22;102655.13;;;9.88;100.00
17855;BME280;9053;53.358;6.382;2023-04-09T07:37:56;102647.56;;;9.93;100.00
17855;BME280;9053;53.358;6.382;2023-04-09T07:40:26;102649.53;;;9.97;100.00
17855;BME280;9053;53.358;6.382;2023-04-09T07:42:56;102645.41;;;10.01;100.00
17855;BME280;9053;53.358;6.382;2023-04-09T07:45:25;102647.41;;;10.05;100.00
17855;BME280;9053;53.358;6.382;2023-04-09T07:47:58;102637.91;;;10.07;100.00
17855;BME280;9053;53.358;6.382;2023-04-09T07:50:32;102643.28;;;10.08;100.00
17855;BME280;9053;53.358;6.382;2023-04-09T07:53:02;102645.09;;;10.09;100.00
17855;BME280;9053;53.358;6.382;2023-04-09T07:55:32;102646.19;;;10.13;100.00
17855;BME280;9053;53.358;6.382;2023-04-09T07:58:01;102649.09;;;10.17;100.00
17855;BME280;9053;53.358;6.382;2023-04-09T08:00:33;102658.91;;;10.20;100.00
17855;BME280;9053;53.358;6.382;2023-04-09T08:03:05;102645.06;;;10.23;100.00
17855;BME280;9053;53.358;6.382;2023-04-09T08:05:35;102644.34;;;10.25;100.00
17855;BME280;9053;53.358;6.382;2023-04-09T08:08:06;102651.66;;;10.29;100.00
17855;BME280;9053;53.358;6.382;2023-04-09T08:10:36;102654.47;;;10.32;100.00
17855;BME280;9053;53.358;6.382;2023-04-09T08:13:06;102645.69;;;10.32;100.00
17855;BME280;9053;53.358;6.382;2023-04-09T08:15:37;102652.88;;;10.34;100.00
17855;BME280;9053;53.358;6.382;2023-04-09T08:18:10;102653.03;;;10.37;100.00
17855;BME280;9053;53.358;6.382;2023-04-09T08:20:40;102655.06;;;10.42;100.00
17855;BME280;9053;53.358;6.382;2023-04-09T08:23:11;102652.63;;;10.45;100.00
17855;BME280;9053;53.358;6.382;2023-04-09T08:25:41;102654.44;;;10.46;100.00
17855;BME280;9053;53.358;6.382;2023-04-09T08:28:11;102649.47;;;10.50;100.00
17855;BME280;9053;53.358;6.382;2023-04-09T08:30:41;102658.38;;;10.52;100.00
17855;BME280;9053;53.358;6.382;2023-04-09T08:33:13;102654.13;;;10.54;100.00
17855;BME280;9053;53.358;6.382;2023-04-09T08:35:43;102659.50;;;10.56;100.00
17855;BME280;9053;53.358;6.382;2023-04-09T08:38:13;102655.13;;;10.56;100.00
17855;BME280;9053;53.358;6.382;2023-04-09T08:40:43;102652.59;;;10.58;100.00
17855;BME280;9053;53.358;6.382;2023-04-09T08:43:15;102654.41;;;10.59;100.00
17855;BME280;9053;53.358;6.382;2023-04-09T08:45:44;102651.88;;;10.60;100.00
17855;BME280;9053;53.358;6.382;2023-04-09T08:48:17;102655.31;;;10.59;100.00
17855;BME280;9053;53.358;6.382;2023-04-09T08:50:48;102656.03;;;10.57;100.00
17855;BME280;9053;53.358;6.382;2023-04-09T08:53:20;102654.00;;;10.53;100.00
17855;BME280;9053;53.358;6.382;2023-04-09T08:55:51;102649.47;;;10.50;100.00
17855;BME280;9053;53.358;6.382;2023-04-09T08:58:21;102657.47;;;10.52;100.00
17855;BME280;9053;53.358;6.382;2023-04-09T09:00:51;102659.28;;;10.53;100.00
17855;BME280;9053;53.358;6.382;2023-04-09T09:03:24;102660.22;;;10.53;100.00
17855;BME280;9053;53.358;6.382;2023-04-09T09:05:54;102659.28;;;10.53;100.00
17855;BME280;9053;53.358;6.382;2023-04-09T09:08:25;102649.09;;;10.44;100.00
17855;BME280;9053;53.358;6.382;2023-04-09T09:10:56;102656.28;;;10.47;100.00
17855;BME280;9053;53.358;6.382;2023-04-09T09:13:26;102651.13;;;10.48;100.00
17855;BME280;9053;53.358;6.382;2023-04-09T09:16:12;102652.41;;;10.55;100.00
17855;BME280;9053;53.358;6.382;2023-04-09T09:18:45;102654.22;;;10.56;100.00
17855;BME280;9053;53.358;6.382;2023-04-09T09:21:16;102654.50;;;10.60;100.00
17855;BME280;9053;53.358;6.382;2023-04-09T09:23:47;102653.88;;;10.65;100.00
17855;BME280;9053;53.358;6.382;2023-04-09T09:26:18;102655.69;;;10.66;100.00
17855;BME280;9053;53.358;6.382;2023-04-09T09:28:49;102660.69;;;10.61;100.00
17855;BME280;9053;53.358;6.382;2023-04-09T09:31:21;102653.50;;;10.58;100.00
17855;BME280;9053;53.358;6.382;2023-04-09T09:33:54;102653.78;;;10.63;100.00
17855;BME280;9053;53.358;6.382;2023-04-09T09:36:30;102650.53;;;10.67;99.99
17855;BME280;9053;53.358;6.382;2023-04-09T09:39:01;102648.81;;;10.68;99.89
17855;BME280;9053;53.358;6.382;2023-04-09T09:41:38;102645.63;;;10.73;99.66
17855;BME280;9053;53.358;6.382;2023-04-09T09:44:09;102637.94;;;10.76;99.60
17855;BME280;9053;53.358;6.382;2023-04-09T09:46:40;102636.50;;;10.81;99.54
17855;BME280;9053;53.358;6.382;2023-04-09T09:49:12;102634.88;;;10.83;99.42
17855;BME280;9053;53.358;6.382;2023-04-09T09:51:42;102631.59;;;10.88;99.30
17855;BME280;9053;53.358;6.382;2023-04-09T09:54:13;102631.06;;;10.93;99.29
17855;BME280;9053;53.358;6.382;2023-04-09T09:56:51;102641.81;;;10.96;99.23
17855;BME280;9053;53.358;6.382;2023-04-09T09:59:25;102639.97;;;10.95;98.93
17855;BME280;9053;53.358;6.382;2023-04-09T10:02:03;102633.44;;;11.03;99.00
17855;BME280;9053;53.358;6.382;2023-04-09T10:04:36;102637.25;;;11.09;98.88
17855;BME280;9053;53.358;6.382;2023-04-09T10:07:08;102632.28;;;11.13;98.79
17855;BME280;9053;53.358;6.382;2023-04-09T10:09:40;102631.03;;;11.21;98.78
17855;BME280;9053;53.358;6.382;2023-04-09T10:12:11;102623.66;;;11.31;98.63
17855;BME280;9053;53.358;6.382;2023-04-09T10:14:41;102630.22;;;11.37;98.59
17855;BME280;9053;53.358;6.382;2023-04-09T10:17:12;102624.22;;;11.40;98.44
17855;BME280;9053;53.358;6.382;2023-04-09T10:19:54;102620.91;;;11.44;98.56
17855;BME280;9053;53.358;6.382;2023-04-09T10:22:28;102629.03;;;11.47;98.30
17855;BME280;9053;53.358;6.382;2023-04-09T10:25:01;102612.22;;;11.45;98.15
17855;BME280;9053;53.358;6.382;2023-04-09T10:27:32;102615.66;;;11.44;97.97
17855;BME280;9053;53.358;6.382;2023-04-09T10:30:02;102600.56;;;11.41;97.84
17855;BME280;9053;53.358;6.382;2023-04-09T10:32:36;102602.31;;;11.41;97.58
17855;BME280;9053;53.358;6.382;2023-04-09T10:35:09;102594.56;;;11.44;97.50
17855;BME280;9053;53.358;6.382;2023-04-09T10:37:47;102594.84;;;11.48;97.36
17855;BME280;9053;53.358;6.382;2023-04-09T10:40:20;102592.47;;;11.53;97.37
17855;BME280;9053;53.358;6.382;2023-04-09T10:42:50;102586.13;;;11.64;97.17
17855;BME280;9053;53.358;6.382;2023-04-09T10:45:21;102583.97;;;11.74;97.16
17855;BME280;9053;53.358;6.382;2023-04-09T10:47:52;102584.69;;;11.86;96.99
17855;BME280;9053;53.358;6.382;2023-04-09T10:50:26;102581.94;;;11.99;97.09
17855;BME280;9053;53.358;6.382;2023-04-09T10:53:02;102584.34;;;12.11;96.92
17855;BME280;9053;53.358;6.382;2023-04-09T10:55:34;102576.06;;;12.20;97.02
17855;BME280;9053;53.358;6.382;2023-04-09T10:58:05;102576.53;;;12.29;96.78
17855;BME280;9053;53.358;6.382;2023-04-09T11:00:40;102575.22;;;12.37;96.56
17855;BME280;9053;53.358;6.382;2023-04-09T11:03:19;102577.38;;;12.44;96.44
17855;BME280;9053;53.358;6.382;2023-04-09T11:05:55;102563.69;;;12.51;96.19
17855;BME280;9053;53.358;6.382;2023-04-09T11:08:30;102558.91;;;12.61;95.84
17855;BME280;9053;53.358;6.382;2023-04-09T11:11:01;102560.69;;;12.62;95.64
17855;BME280;9053;53.358;6.382;2023-04-09T11:13:31;102558.16;;;12.63;95.28
17855;BME280;9053;53.358;6.382;2023-04-09T11:16:02;102555.81;;;12.69;95.16
17855;BME280;9053;53.358;6.382;2023-04-09T11:18:33;102555.41;;;12.78;94.89
17855;BME280;9053;53.358;6.382;2023-04-09T11:21:06;102546.16;;;12.86;94.76
17855;BME280;9053;53.358;6.382;2023-04-09T11:23:36;102547.53;;;12.96;94.57
17855;BME280;9053;53.358;6.382;2023-04-09T11:26:08;102542.78;;;13.07;94.37
17855;BME280;9053;53.358;6.382;2023-04-09T11:28:41;102533.22;;;13.09;94.16
17855;BME280;9053;53.358;6.382;2023-04-09T11:31:11;102541.66;;;13.19;93.86
17855;BME280;9053;53.358;6.382;2023-04-09T11:33:44;102544.97;;;13.32;93.61
17855;BME280;9053;53.358;6.382;2023-04-09T11:36:20;102534.78;;;13.39;93.42
17855;BME280;9053;53.358;6.382;2023-04-09T11:38:51;102535.75;;;13.41;93.15
17855;BME280;9053;53.358;6.382;2023-04-09T11:41:32;102522.69;;;13.45;92.92
17855;BME280;9053;53.358;6.382;2023-04-09T11:44:02;102512.88;;;13.42;92.54
17855;BME280;9053;53.358;6.382;2023-04-09T11:46:33;102510.31;;;13.44;92.25
17855;BME280;9053;53.358;6.382;2023-04-09T11:49:04;102517.72;;;13.51;91.95
17855;BME280;9053;53.358;6.382;2023-04-09T11:51:36;102505.44;;;13.53;91.74
17855;BME280;9053;53.358;6.382;2023-04-09T11:54:07;102518.13;;;13.60;91.39
17855;BME280;9053;53.358;6.382;2023-04-09T11:56:37;102507.56;;;13.60;91.00
17855;BME280;9053;53.358;6.382;2023-04-09T11:59:06;102512.72;;;13.57;90.71
17855;BME280;9053;53.358;6.382;2023-04-09T12:01:36;102506.28;;;13.52;90.53
17855;BME280;9053;53.358;6.382;2023-04-09T12:04:06;102503.66;;;13.52;90.25
17855;BME280;9053;53.358;6.382;2023-04-09T12:06:42;102498.88;;;13.62;90.22
17855;BME280;9053;53.358;6.382;2023-04-09T12:09:12;102501.34;;;13.77;90.14
17855;BME280;9053;53.358;6.382;2023-04-09T12:11:42;102506.34;;;13.91;90.20
17855;BME280;9053;53.358;6.382;2023-04-09T12:14:13;102505.69;;;13.95;89.98
17855;BME280;9053;53.358;6.382;2023-04-09T12:16:44;102503.38;;;14.02;89.92
17855;BME280;9053;53.358;6.382;2023-04-09T12:19:13;102505.69;;;14.14;89.72
17855;BME280;9053;53.358;6.382;2023-04-09T12:21:49;102495.50;;;14.23;89.56
17855;BME280;9053;53.358;6.382;2023-04-09T12:24:21;102488.09;;;14.34;89.42
17855;BME280;9053;53.358;6.382;2023-04-09T12:26:51;102490.28;;;14.44;89.25
17855;BME280;9053;53.358;6.382;2023-04-09T12:29:23;102496.00;;;14.54;88.91
17855;BME280;9053;53.358;6.382;2023-04-09T12:31:52;102480.13;;;14.54;88.66
17855;BME280;9053;53.358;6.382;2023-04-09T12:34:22;102484.84;;;14.61;88.38
17855;BME280;9053;53.358;6.382;2023-04-09T12:36:55;102486.94;;;14.68;88.07
17855;BME280;9053;53.358;6.382;2023-04-09T12:39:29;102487.38;;;14.79;87.97
17855;BME280;9053;53.358;6.382;2023-04-09T12:42:00;102485.84;;;14.84;87.73
17855;BME280;9053;53.358;6.382;2023-04-09T12:44:30;102485.13;;;14.88;87.44
17855;BME280;9053;53.358;6.382;2023-04-09T12:47:00;102480.84;;;14.91;87.23
17855;BME280;9053;53.358;6.382;2023-04-09T12:49:30;102476.63;;;14.95;86.88
17855;BME280;9053;53.358;6.382;2023-04-09T12:52:03;102485.66;;;15.00;86.65
17855;BME280;9053;53.358;6.382;2023-04-09T12:54:33;102476.84;;;15.01;86.48
17855;BME280;9053;53.358;6.382;2023-04-09T12:57:03;102470.00;;;15.06;86.25
17855;BME280;9053;53.358;6.382;2023-04-09T12:59:33;102472.84;;;15.11;86.07
17855;BME280;9053;53.358;6.382;2023-04-09T13:02:02;102468.59;;;15.14;85.93
17855;BME280;9053;53.358;6.382;2023-04-09T13:04:33;102460.03;;;15.22;85.55
17855;BME280;9053;53.358;6.382;2023-04-09T13:07:06;102439.09;;;15.28;85.32
17855;BME280;9053;53.358;6.382;2023-04-09T13:09:40;102442.81;;;15.33;85.13
17855;BME280;9053;53.358;6.382;2023-04-09T13:12:10;102438.69;;;15.40;84.99
17855;BME280;9053;53.358;6.382;2023-04-09T13:14:42;102451.19;;;15.44;84.67
17855;BME280;9053;53.358;6.382;2023-04-09T13:17:13;102445.78;;;15.41;84.37
17855;BME280;9053;53.358;6.382;2023-04-09T13:19:43;102446.66;;;15.41;84.00
17855;BME280;9053;53.358;6.382;2023-04-09T13:22:15;102446.75;;;15.43;83.75
17855;BME280;9053;53.358;6.382;2023-04-09T13:24:45;102451.19;;;15.44;83.37